Taneytown, Maryland
Current Conditions -  °F | °C
As of 3:35 AM on Saturday 20 Dec 2014 (Local Time) from KDMW Reporting Station
Scattered Clouds Scattered Clouds  
Wind Chill: 27°   Ceiling: Unl
Heat Index: 27°   Visibility: 10mi
Dew Point: 19°   Wind: 0mph
Humidity: 74%   Direction: NA
Pressure: 30.22"   Gusts: NA
Location:  39.66°N, 77.17°W
Report Text: KDMW 200835Z AUTO 00000KT 10SM SCT080 M03/M07 A3022 RMK AO2
Loading
Personal Weather Stations






























Interactive Weather Map New forecast layout! Learn more

10-Day Weather Forecast

Advertisements
Track Severe Weather on mobile